This is the latest recevied weather packets stored in our database for station/object LRTM. If no packets are shown the sender has not sent any weather packets the latest 1 day(s).
| Time | Temp. | Humidity | Pressure | Rain* | Wind** | Luminosity | Snow |
|---|---|---|---|---|---|---|---|
| 1836274152 | 11.11° C | 100% | 1029 hPa | - | 1.34 m/s, 90° | - | - |
| 1778014108 | 10° C | 67% | 1013 hPa | - | 2.68 m/s, 70° | - | - |
| 1778013206 | 10° C | 67% | 1013 hPa | - | 2.68 m/s, 70° | - | - |
| 1778010506 | 12.22° C | 63% | 1012 hPa | - | 0 m/s | - | - |
| 1778009606 | 12.22° C | 63% | 1012 hPa | - | 0 m/s | - | - |
| 1778006907 | 15° C | 55% | 1012 hPa | - | 0.45 m/s, 350° | - | - |
| 1778006007 | 15° C | 55% | 1012 hPa | - | 0.45 m/s, 350° | - | - |
| 1778003304 | 20° C | 40% | 1011 hPa | - | 2.24 m/s, 110° | - | - |
| 1778002406 | 20° C | 40% | 1011 hPa | - | 2.24 m/s, 110° | - | - |
| 1778001506 | 22.78° C | 38% | 1011 hPa | - | 1.34 m/s, 80° | - | - |
| 1778000607 | 22.78° C | 38% | 1011 hPa | - | 1.34 m/s, 80° | - | - |
| 1777990706 | 27.22° C | 23% | 1013 hPa | - | 2.24 m/s, 210° | - | - |
| 1777989806 | 27.22° C | 23% | 1013 hPa | - | 2.24 m/s, 210° | - | - |
| 1777987106 | 26.11° C | 23% | 1013 hPa | - | 2.68 m/s, 270° | - | - |
| 1777986206 | 26.11° C | 23% | 1013 hPa | - | 2.68 m/s, 270° | - | - |
| 1777985306 | 27.22° C | 23% | 1014 hPa | - | 2.68 m/s, 230° | - | - |
| 1777984406 | 27.22° C | 23% | 1014 hPa | - | 2.68 m/s, 230° | - | - |
| 1777983506 | 26.11° C | 21% | 1014 hPa | - | 2.68 m/s, 230° | - | - |
| 1777982613 | 25° C | 26% | 1014 hPa | - | 2.68 m/s, 260° | - | - |
| 1777981714 | 25° C | 26% | 1014 hPa | - | 2.68 m/s, 260° | - | - |
| 1777980837 | 25° C | 26% | 1014 hPa | - | 2.68 m/s, 260° | - | - |
| 1777978107 | 23.89° C | 29% | 1015 hPa | - | 2.24 m/s, 260° | - | - |
| 1777977208 | 23.89° C | 29% | 1015 hPa | - | 2.24 m/s, 260° | - | - |
| 1777976307 | 22.78° C | 29% | 1015 hPa | - | 2.24 m/s, 240° | - | - |
| 1777975406 | 22.78° C | 29% | 1015 hPa | - | 2.24 m/s, 240° | - | - |
* Rain since midnight (hover to see other rain measurements)
** Current wind speed in m/s (hover to see current wind gust speed)